sensor_id;sensor_type;location;lat;lon;timestamp;temperature;humidity
10692;DHT22;5396;50.950;6.988;2022-12-20T00:01:12;11.70;99.90
10692;DHT22;5396;50.950;6.988;2022-12-20T00:03:38;11.70;99.90
10692;DHT22;5396;50.950;6.988;2022-12-20T00:06:06;11.60;99.90
10692;DHT22;5396;50.950;6.988;2022-12-20T00:08:32;11.50;99.90
10692;DHT22;5396;50.950;6.988;2022-12-20T00:11:00;11.40;99.90
10692;DHT22;5396;50.950;6.988;2022-12-20T00:13:26;11.30;99.90
10692;DHT22;5396;50.950;6.988;2022-12-20T00:16:10;11.20;99.90
10692;DHT22;5396;50.950;6.988;2022-12-20T00:18:37;11.10;99.90
10692;DHT22;5396;50.950;6.988;2022-12-20T00:21:04;10.90;99.90
10692;DHT22;5396;50.950;6.988;2022-12-20T00:23:30;10.80;99.90
10692;DHT22;5396;50.950;6.988;2022-12-20T00:26:05;10.80;99.90
10692;DHT22;5396;50.950;6.988;2022-12-20T00:28:32;10.80;99.90
10692;DHT22;5396;50.950;6.988;2022-12-20T00:30:58;10.80;99.90
10692;DHT22;5396;50.950;6.988;2022-12-20T00:33:23;10.90;99.90
10692;DHT22;5396;50.950;6.988;2022-12-20T00:35:49;10.90;99.90
10692;DHT22;5396;50.950;6.988;2022-12-20T00:38:15;10.90;99.90
10692;DHT22;5396;50.950;6.988;2022-12-20T00:40:41;10.80;99.90
10692;DHT22;5396;50.950;6.988;2022-12-20T00:43:06;10.80;99.90
10692;DHT22;5396;50.950;6.988;2022-12-20T00:45:32;10.80;99.90
10692;DHT22;5396;50.950;6.988;2022-12-20T00:47:57;10.80;99.90
10692;DHT22;5396;50.950;6.988;2022-12-20T00:50:23;10.80;99.90
10692;DHT22;5396;50.950;6.988;2022-12-20T00:52:49;10.70;99.90
10692;DHT22;5396;50.950;6.988;2022-12-20T00:55:14;10.60;99.90
10692;DHT22;5396;50.950;6.988;2022-12-20T00:57:40;10.60;99.90
10692;DHT22;5396;50.950;6.988;2022-12-20T01:00:06;10.50;99.90
10692;DHT22;5396;50.950;6.988;2022-12-20T01:02:32;10.60;99.90
10692;DHT22;5396;50.950;6.988;2022-12-20T01:04:57;10.60;99.90
10692;DHT22;5396;50.950;6.988;2022-12-20T01:07:23;10.70;99.90
10692;DHT22;5396;50.950;6.988;2022-12-20T01:09:49;10.90;99.90
10692;DHT22;5396;50.950;6.988;2022-12-20T01:12:15;10.90;99.90
10692;DHT22;5396;50.950;6.988;2022-12-20T01:14:42;11.00;99.90
10692;DHT22;5396;50.950;6.988;2022-12-20T01:17:08;11.10;99.90
10692;DHT22;5396;50.950;6.988;2022-12-20T01:19:33;11.20;99.90
10692;DHT22;5396;50.950;6.988;2022-12-20T01:21:59;11.20;99.90
10692;DHT22;5396;50.950;6.988;2022-12-20T01:24:24;11.20;99.90
10692;DHT22;5396;50.950;6.988;2022-12-20T01:26:50;11.30;99.90
10692;DHT22;5396;50.950;6.988;2022-12-20T01:29:16;11.40;99.90
10692;DHT22;5396;50.950;6.988;2022-12-20T01:31:42;11.40;99.90
10692;DHT22;5396;50.950;6.988;2022-12-20T01:34:08;11.30;99.90
10692;DHT22;5396;50.950;6.988;2022-12-20T01:36:35;11.30;99.90
10692;DHT22;5396;50.950;6.988;2022-12-20T01:39:14;11.30;99.90
10692;DHT22;5396;50.950;6.988;2022-12-20T01:41:41;11.30;99.90
10692;DHT22;5396;50.950;6.988;2022-12-20T01:46:42;11.00;99.90
10692;DHT22;5396;50.950;6.988;2022-12-20T01:51:55;10.70;99.90
10692;DHT22;5396;50.950;6.988;2022-12-20T01:54:26;10.60;99.90
10692;DHT22;5396;50.950;6.988;2022-12-20T01:57:00;10.40;99.90
10692;DHT22;5396;50.950;6.988;2022-12-20T01:59:27;10.40;99.90
10692;DHT22;5396;50.950;6.988;2022-12-20T02:01:57;10.30;99.90
10692;DHT22;5396;50.950;6.988;2022-12-20T02:04:23;10.30;99.90
10692;DHT22;5396;50.950;6.988;2022-12-20T02:06:49;10.20;99.90
10692;DHT22;5396;50.950;6.988;2022-12-20T02:09:14;10.10;99.90
10692;DHT22;5396;50.950;6.988;2022-12-20T02:17:12;10.00;99.90
10692;DHT22;5396;50.950;6.988;2022-12-20T02:29:18;9.70;99.90
10692;DHT22;5396;50.950;6.988;2022-12-20T02:34:32;9.40;99.90
10692;DHT22;5396;50.950;6.988;2022-12-20T02:36:59;9.30;99.90
10692;DHT22;5396;50.950;6.988;2022-12-20T02:39:27;9.20;99.90
10692;DHT22;5396;50.950;6.988;2022-12-20T02:42:03;9.10;99.90
10692;DHT22;5396;50.950;6.988;2022-12-20T02:44:32;9.10;99.90
10692;DHT22;5396;50.950;6.988;2022-12-20T02:47:38;9.00;99.90
10692;DHT22;5396;50.950;6.988;2022-12-20T02:50:06;9.10;99.90
10692;DHT22;5396;50.950;6.988;2022-12-20T02:52:33;9.10;99.90
10692;DHT22;5396;50.950;6.988;2022-12-20T02:54:59;9.10;99.90
10692;DHT22;5396;50.950;6.988;2022-12-20T03:02:38;9.00;99.90
10692;DHT22;5396;50.950;6.988;2022-12-20T03:05:24;8.90;99.90
10692;DHT22;5396;50.950;6.988;2022-12-20T03:07:50;8.90;99.90
10692;DHT22;5396;50.950;6.988;2022-12-20T03:10:16;8.90;99.90
10692;DHT22;5396;50.950;6.988;2022-12-20T03:12:42;8.90;99.90
10692;DHT22;5396;50.950;6.988;2022-12-20T03:15:08;8.90;99.90
10692;DHT22;5396;50.950;6.988;2022-12-20T03:17:34;8.90;99.90
10692;DHT22;5396;50.950;6.988;2022-12-20T03:20:00;8.80;99.90
10692;DHT22;5396;50.950;6.988;2022-12-20T03:22:25;8.80;99.90
10692;DHT22;5396;50.950;6.988;2022-12-20T03:24:52;8.80;99.90
10692;DHT22;5396;50.950;6.988;2022-12-20T03:27:17;8.80;99.90
10692;DHT22;5396;50.950;6.988;2022-12-20T03:29:43;8.80;99.90
10692;DHT22;5396;50.950;6.988;2022-12-20T03:32:10;8.80;99.90
10692;DHT22;5396;50.950;6.988;2022-12-20T03:34:36;8.70;99.90
10692;DHT22;5396;50.950;6.988;2022-12-20T03:37:02;8.70;99.90
10692;DHT22;5396;50.950;6.988;2022-12-20T03:39:27;8.70;99.90
10692;DHT22;5396;50.950;6.988;2022-12-20T03:41:53;8.70;99.90
10692;DHT22;5396;50.950;6.988;2022-12-20T03:44:19;8.70;99.90
10692;DHT22;5396;50.950;6.988;2022-12-20T03:46:44;8.70;99.90
10692;DHT22;5396;50.950;6.988;2022-12-20T03:49:10;8.70;99.90
10692;DHT22;5396;50.950;6.988;2022-12-20T03:51:36;8.70;99.90
10692;DHT22;5396;50.950;6.988;2022-12-20T03:54:02;8.70;99.90
10692;DHT22;5396;50.950;6.988;2022-12-20T03:56:27;8.70;99.90
10692;DHT22;5396;50.950;6.988;2022-12-20T03:58:53;8.70;99.90
10692;DHT22;5396;50.950;6.988;2022-12-20T04:01:26;8.60;99.90
10692;DHT22;5396;50.950;6.988;2022-12-20T04:03:53;8.60;99.90
10692;DHT22;5396;50.950;6.988;2022-12-20T04:06:19;8.70;99.90
10692;DHT22;5396;50.950;6.988;2022-12-20T04:08:45;8.60;99.90
10692;DHT22;5396;50.950;6.988;2022-12-20T04:11:11;8.60;99.90
10692;DHT22;5396;50.950;6.988;2022-12-20T04:13:40;8.60;99.90
10692;DHT22;5396;50.950;6.988;2022-12-20T04:16:06;8.60;99.90
10692;DHT22;5396;50.950;6.988;2022-12-20T04:18:31;8.60;99.90
10692;DHT22;5396;50.950;6.988;2022-12-20T04:20:59;8.50;99.90
10692;DHT22;5396;50.950;6.988;2022-12-20T04:23:25;8.50;99.90
10692;DHT22;5396;50.950;6.988;2022-12-20T04:25:51;8.50;99.90
10692;DHT22;5396;50.950;6.988;2022-12-20T04:28:18;8.50;99.90
10692;DHT22;5396;50.950;6.988;2022-12-20T04:30:43;8.50;99.90
10692;DHT22;5396;50.950;6.988;2022-12-20T04:33:09;8.50;99.90
10692;DHT22;5396;50.950;6.988;2022-12-20T04:35:36;8.50;99.90
10692;DHT22;5396;50.950;6.988;2022-12-20T04:38:01;8.60;99.90
10692;DHT22;5396;50.950;6.988;2022-12-20T04:40:27;8.60;99.90
10692;DHT22;5396;50.950;6.988;2022-12-20T04:42:52;8.50;99.90
10692;DHT22;5396;50.950;6.988;2022-12-20T04:45:18;8.50;99.90
10692;DHT22;5396;50.950;6.988;2022-12-20T04:47:43;8.50;99.90
10692;DHT22;5396;50.950;6.988;2022-12-20T04:50:09;8.50;99.90
10692;DHT22;5396;50.950;6.988;2022-12-20T04:52:35;8.50;99.90
10692;DHT22;5396;50.950;6.988;2022-12-20T04:55:19;8.50;99.90
10692;DHT22;5396;50.950;6.988;2022-12-20T04:57:44;8.50;99.90
10692;DHT22;5396;50.950;6.988;2022-12-20T05:00:10;8.50;99.90
10692;DHT22;5396;50.950;6.988;2022-12-20T05:02:36;8.50;99.90
10692;DHT22;5396;50.950;6.988;2022-12-20T05:05:02;8.50;99.90
10692;DHT22;5396;50.950;6.988;2022-12-20T05:07:27;8.50;99.90
10692;DHT22;5396;50.950;6.988;2022-12-20T05:09:53;8.50;99.90
10692;DHT22;5396;50.950;6.988;2022-12-20T05:12:18;8.60;99.90
10692;DHT22;5396;50.950;6.988;2022-12-20T05:14:44;8.60;99.90
10692;DHT22;5396;50.950;6.988;2022-12-20T05:17:09;8.60;99.90
10692;DHT22;5396;50.950;6.988;2022-12-20T05:19:35;8.50;99.90
10692;DHT22;5396;50.950;6.988;2022-12-20T05:22:01;8.50;99.90
10692;DHT22;5396;50.950;6.988;2022-12-20T05:24:45;8.50;99.90
10692;DHT22;5396;50.950;6.988;2022-12-20T05:27:29;8.50;99.90
10692;DHT22;5396;50.950;6.988;2022-12-20T05:29:54;8.50;99.90
10692;DHT22;5396;50.950;6.988;2022-12-20T05:32:20;8.60;99.90
10692;DHT22;5396;50.950;6.988;2022-12-20T05:34:45;8.70;99.90
10692;DHT22;5396;50.950;6.988;2022-12-20T05:37:11;8.70;99.90
10692;DHT22;5396;50.950;6.988;2022-12-20T05:39:37;8.70;99.90
10692;DHT22;5396;50.950;6.988;2022-12-20T05:42:02;8.80;99.90
10692;DHT22;5396;50.950;6.988;2022-12-20T05:44:28;8.80;99.90
10692;DHT22;5396;50.950;6.988;2022-12-20T05:46:54;8.80;99.90
10692;DHT22;5396;50.950;6.988;2022-12-20T05:49:19;8.80;99.90
10692;DHT22;5396;50.950;6.988;2022-12-20T05:51:45;8.80;99.90
10692;DHT22;5396;50.950;6.988;2022-12-20T05:54:10;8.80;99.90
10692;DHT22;5396;50.950;6.988;2022-12-20T05:56:36;8.80;99.90
10692;DHT22;5396;50.950;6.988;2022-12-20T05:59:01;8.80;99.90
10692;DHT22;5396;50.950;6.988;2022-12-20T06:01:27;8.80;99.90
10692;DHT22;5396;50.950;6.988;2022-12-20T06:03:53;8.80;99.90
10692;DHT22;5396;50.950;6.988;2022-12-20T06:06:18;8.70;99.90
10692;DHT22;5396;50.950;6.988;2022-12-20T06:08:44;8.80;99.90
10692;DHT22;5396;50.950;6.988;2022-12-20T06:11:10;8.80;99.90
10692;DHT22;5396;50.950;6.988;2022-12-20T06:13:35;8.80;99.90
10692;DHT22;5396;50.950;6.988;2022-12-20T06:16:01;8.80;99.90
10692;DHT22;5396;50.950;6.988;2022-12-20T06:18:27;8.90;99.90
10692;DHT22;5396;50.950;6.988;2022-12-20T06:20:53;8.90;99.90
10692;DHT22;5396;50.950;6.988;2022-12-20T06:23:19;8.90;99.90
10692;DHT22;5396;50.950;6.988;2022-12-20T06:25:45;8.90;99.90
10692;DHT22;5396;50.950;6.988;2022-12-20T06:28:11;8.90;99.90
10692;DHT22;5396;50.950;6.988;2022-12-20T06:30:37;9.00;99.90
10692;DHT22;5396;50.950;6.988;2022-12-20T06:33:03;9.00;99.90
10692;DHT22;5396;50.950;6.988;2022-12-20T06:35:29;9.00;99.90
10692;DHT22;5396;50.950;6.988;2022-12-20T06:37:55;9.00;99.90
10692;DHT22;5396;50.950;6.988;2022-12-20T06:40:21;9.00;99.90
10692;DHT22;5396;50.950;6.988;2022-12-20T06:42:46;9.00;99.90
10692;DHT22;5396;50.950;6.988;2022-12-20T06:45:12;9.00;99.90
10692;DHT22;5396;50.950;6.988;2022-12-20T06:47:38;9.00;99.90
10692;DHT22;5396;50.950;6.988;2022-12-20T06:50:04;9.00;99.90
10692;DHT22;5396;50.950;6.988;2022-12-20T06:52:30;9.00;99.90
10692;DHT22;5396;50.950;6.988;2022-12-20T06:54:56;9.00;99.90
10692;DHT22;5396;50.950;6.988;2022-12-20T06:57:22;9.00;99.90
10692;DHT22;5396;50.950;6.988;2022-12-20T06:59:48;9.00;99.90
10692;DHT22;5396;50.950;6.988;2022-12-20T07:02:14;9.00;99.90
10692;DHT22;5396;50.950;6.988;2022-12-20T07:04:40;9.00;99.90
10692;DHT22;5396;50.950;6.988;2022-12-20T07:07:06;9.00;99.90
10692;DHT22;5396;50.950;6.988;2022-12-20T07:09:31;8.90;99.90
10692;DHT22;5396;50.950;6.988;2022-12-20T07:11:57;8.90;99.90
10692;DHT22;5396;50.950;6.988;2022-12-20T07:14:23;8.90;99.90
10692;DHT22;5396;50.950;6.988;2022-12-20T07:16:48;8.90;99.90
10692;DHT22;5396;50.950;6.988;2022-12-20T07:19:14;8.80;99.90
10692;DHT22;5396;50.950;6.988;2022-12-20T07:21:41;8.80;99.90
10692;DHT22;5396;50.950;6.988;2022-12-20T07:24:07;8.70;99.90
10692;DHT22;5396;50.950;6.988;2022-12-20T07:26:33;8.70;99.90
10692;DHT22;5396;50.950;6.988;2022-12-20T07:28:59;8.60;99.90
10692;DHT22;5396;50.950;6.988;2022-12-20T07:31:24;8.60;99.90
10692;DHT22;5396;50.950;6.988;2022-12-20T07:33:50;8.60;99.90
10692;DHT22;5396;50.950;6.988;2022-12-20T07:36:15;8.70;99.90
10692;DHT22;5396;50.950;6.988;2022-12-20T07:38:41;8.80;99.90
10692;DHT22;5396;50.950;6.988;2022-12-20T07:41:09;8.90;99.90
10692;DHT22;5396;50.950;6.988;2022-12-20T07:43:35;8.90;99.90
10692;DHT22;5396;50.950;6.988;2022-12-20T07:46:02;8.90;99.90
10692;DHT22;5396;50.950;6.988;2022-12-20T07:48:28;8.90;99.90
10692;DHT22;5396;50.950;6.988;2022-12-20T07:50:59;8.90;99.90
10692;DHT22;5396;50.950;6.988;2022-12-20T07:53:27;8.90;99.90
10692;DHT22;5396;50.950;6.988;2022-12-20T07:55:53;9.00;99.90
10692;DHT22;5396;50.950;6.988;2022-12-20T07:58:19;9.00;99.90
10692;DHT22;5396;50.950;6.988;2022-12-20T08:00:46;9.00;99.90
10692;DHT22;5396;50.950;6.988;2022-12-20T08:03:14;9.00;99.90
10692;DHT22;5396;50.950;6.988;2022-12-20T08:05:45;9.10;99.90
10692;DHT22;5396;50.950;6.988;2022-12-20T08:08:11;9.10;99.90
10692;DHT22;5396;50.950;6.988;2022-12-20T08:10:38;9.10;99.90
10692;DHT22;5396;50.950;6.988;2022-12-20T08:13:05;9.20;99.90
10692;DHT22;5396;50.950;6.988;2022-12-20T08:15:33;9.30;99.90
10692;DHT22;5396;50.950;6.988;2022-12-20T08:17:59;9.30;99.90
10692;DHT22;5396;50.950;6.988;2022-12-20T08:20:24;9.40;99.90
10692;DHT22;5396;50.950;6.988;2022-12-20T08:22:50;9.40;99.90
10692;DHT22;5396;50.950;6.988;2022-12-20T08:25:16;9.30;99.90
10692;DHT22;5396;50.950;6.988;2022-12-20T08:27:42;9.30;99.90
10692;DHT22;5396;50.950;6.988;2022-12-20T08:30:08;9.30;99.90
10692;DHT22;5396;50.950;6.988;2022-12-20T08:32:35;9.30;99.90
10692;DHT22;5396;50.950;6.988;2022-12-20T08:35:00;9.30;99.90
10692;DHT22;5396;50.950;6.988;2022-12-20T08:37:26;9.30;99.90
10692;DHT22;5396;50.950;6.988;2022-12-20T08:39:52;9.30;99.90
10692;DHT22;5396;50.950;6.988;2022-12-20T08:42:17;9.30;99.90
10692;DHT22;5396;50.950;6.988;2022-12-20T08:44:43;9.20;99.90
10692;DHT22;5396;50.950;6.988;2022-12-20T08:47:09;9.20;99.90
10692;DHT22;5396;50.950;6.988;2022-12-20T08:49:35;9.20;99.90
10692;DHT22;5396;50.950;6.988;2022-12-20T08:52:01;9.20;99.90
10692;DHT22;5396;50.950;6.988;2022-12-20T08:54:27;9.20;99.90
10692;DHT22;5396;50.950;6.988;2022-12-20T08:56:52;9.20;99.90
10692;DHT22;5396;50.950;6.988;2022-12-20T08:59:18;9.20;99.90
10692;DHT22;5396;50.950;6.988;2022-12-20T09:01:44;9.20;99.90
10692;DHT22;5396;50.950;6.988;2022-12-20T09:04:10;9.20;99.90
10692;DHT22;5396;50.950;6.988;2022-12-20T09:06:36;9.20;99.90
10692;DHT22;5396;50.950;6.988;2022-12-20T09:09:03;9.20;99.90
10692;DHT22;5396;50.950;6.988;2022-12-20T09:11:28;9.20;99.90
10692;DHT22;5396;50.950;6.988;2022-12-20T09:13:55;9.20;99.90
10692;DHT22;5396;50.950;6.988;2022-12-20T09:16:25;9.20;99.90
10692;DHT22;5396;50.950;6.988;2022-12-20T09:18:53;9.20;99.90
10692;DHT22;5396;50.950;6.988;2022-12-20T09:21:19;9.30;99.90
10692;DHT22;5396;50.950;6.988;2022-12-20T09:23:45;9.20;99.90
10692;DHT22;5396;50.950;6.988;2022-12-20T09:26:13;9.30;99.90
10692;DHT22;5396;50.950;6.988;2022-12-20T09:28:40;9.30;99.90
10692;DHT22;5396;50.950;6.988;2022-12-20T09:31:09;9.30;99.90
10692;DHT22;5396;50.950;6.988;2022-12-20T09:33:35;9.30;99.90
10692;DHT22;5396;50.950;6.988;2022-12-20T09:36:02;9.30;99.90
10692;DHT22;5396;50.950;6.988;2022-12-20T09:38:28;9.30;99.90
10692;DHT22;5396;50.950;6.988;2022-12-20T09:40:59;9.30;99.90
10692;DHT22;5396;50.950;6.988;2022-12-20T09:43:27;9.30;99.90
10692;DHT22;5396;50.950;6.988;2022-12-20T09:45:58;9.40;99.90
10692;DHT22;5396;50.950;6.988;2022-12-20T09:48:35;9.30;99.90
10692;DHT22;5396;50.950;6.988;2022-12-20T09:56:34;9.40;99.90
10692;DHT22;5396;50.950;6.988;2022-12-20T09:59:11;9.50;99.90
10692;DHT22;5396;50.950;6.988;2022-12-20T10:01:38;9.50;99.90
10692;DHT22;5396;50.950;6.988;2022-12-20T10:04:25;9.60;99.90
10692;DHT22;5396;50.950;6.988;2022-12-20T10:09:49;9.80;99.90
10692;DHT22;5396;50.950;6.988;2022-12-20T10:15:19;9.80;99.90
10692;DHT22;5396;50.950;6.988;2022-12-20T10:18:13;9.90;99.90
10692;DHT22;5396;50.950;6.988;2022-12-20T10:23:32;9.90;99.90
10692;DHT22;5396;50.950;6.988;2022-12-20T10:26:00;10.00;99.90
10692;DHT22;5396;50.950;6.988;2022-12-20T10:28:30;10.00;99.90
10692;DHT22;5396;50.950;6.988;2022-12-20T10:31:06;10.10;99.90
10692;DHT22;5396;50.950;6.988;2022-12-20T10:33:32;10.10;99.90
10692;DHT22;5396;50.950;6.988;2022-12-20T10:36:36;10.20;99.90
10692;DHT22;5396;50.950;6.988;2022-12-20T10:39:07;10.10;99.90
10692;DHT22;5396;50.950;6.988;2022-12-20T10:41:53;10.20;99.90
10692;DHT22;5396;50.950;6.988;2022-12-20T10:46:48;10.30;99.90
10692;DHT22;5396;50.950;6.988;2022-12-20T10:49:31;10.30;99.90
10692;DHT22;5396;50.950;6.988;2022-12-20T10:52:10;10.30;99.90
10692;DHT22;5396;50.950;6.988;2022-12-20T10:54:41;10.40;99.90
10692;DHT22;5396;50.950;6.988;2022-12-20T10:59:42;10.50;99.90
10692;DHT22;5396;50.950;6.988;2022-12-20T11:02:25;10.50;99.90
10692;DHT22;5396;50.950;6.988;2022-12-20T11:07:38;10.50;99.90
10692;DHT22;5396;50.950;6.988;2022-12-20T11:10:19;10.60;99.90
10692;DHT22;5396;50.950;6.988;2022-12-20T11:12:56;10.50;99.90
10692;DHT22;5396;50.950;6.988;2022-12-20T11:18:08;10.50;99.90
10692;DHT22;5396;50.950;6.988;2022-12-20T11:21:12;10.50;99.90
10692;DHT22;5396;50.950;6.988;2022-12-20T11:23:47;10.50;99.90
10692;DHT22;5396;50.950;6.988;2022-12-20T11:31:43;10.50;99.90
10692;DHT22;5396;50.950;6.988;2022-12-20T11:37:55;10.50;99.90
10692;DHT22;5396;50.950;6.988;2022-12-20T11:40:32;10.50;99.90
10692;DHT22;5396;50.950;6.988;2022-12-20T12:00:17;10.50;99.90
10692;DHT22;5396;50.950;6.988;2022-12-20T12:02:47;10.50;99.90
10692;DHT22;5396;50.950;6.988;2022-12-20T12:05:20;10.50;99.90
10692;DHT22;5396;50.950;6.988;2022-12-20T12:07:52;10.50;99.90
10692;DHT22;5396;50.950;6.988;2022-12-20T12:10:24;10.50;99.90
10692;DHT22;5396;50.950;6.988;2022-12-20T12:13:02;10.50;99.90
10692;DHT22;5396;50.950;6.988;2022-12-20T12:16:10;10.50;99.90
10692;DHT22;5396;50.950;6.988;2022-12-20T12:18:38;10.60;99.90
10692;DHT22;5396;50.950;6.988;2022-12-20T12:21:15;10.60;99.90
10692;DHT22;5396;50.950;6.988;2022-12-20T12:23:52;10.60;99.90
10692;DHT22;5396;50.950;6.988;2022-12-20T12:26:27;10.60;99.90
10692;DHT22;5396;50.950;6.988;2022-12-20T12:28:59;10.50;99.90
10692;DHT22;5396;50.950;6.988;2022-12-20T12:31:35;10.50;99.90
10692;DHT22;5396;50.950;6.988;2022-12-20T12:37:09;10.50;99.90
10692;DHT22;5396;50.950;6.988;2022-12-20T12:42:55;10.50;99.90
10692;DHT22;5396;50.950;6.988;2022-12-20T12:45:34;10.50;99.90
10692;DHT22;5396;50.950;6.988;2022-12-20T12:48:04;10.50;99.90
10692;DHT22;5396;50.950;6.988;2022-12-20T12:50:37;10.50;99.90
10692;DHT22;5396;50.950;6.988;2022-12-20T12:54:11;10.50;99.90
10692;DHT22;5396;50.950;6.988;2022-12-20T13:04:23;10.40;99.90
10692;DHT22;5396;50.950;6.988;2022-12-20T13:09:52;10.30;99.90
10692;DHT22;5396;50.950;6.988;2022-12-20T13:17:57;10.30;99.90
10692;DHT22;5396;50.950;6.988;2022-12-20T13:20:27;10.30;99.90
10692;DHT22;5396;50.950;6.988;2022-12-20T13:25:38;10.20;99.90
10692;DHT22;5396;50.950;6.988;2022-12-20T13:41:45;10.10;99.90
10692;DHT22;5396;50.950;6.988;2022-12-20T13:46:55;10.10;99.90
10692;DHT22;5396;50.950;6.988;2022-12-20T13:49:26;10.00;99.90
10692;DHT22;5396;50.950;6.988;2022-12-20T13:52:17;10.10;99.90
10692;DHT22;5396;50.950;6.988;2022-12-20T13:54:47;10.00;99.90
10692;DHT22;5396;50.950;6.988;2022-12-20T13:57:27;10.10;99.90
10692;DHT22;5396;50.950;6.988;2022-12-20T13:59:56;10.10;99.90
10692;DHT22;5396;50.950;6.988;2022-12-20T14:02:26;10.10;99.90
10692;DHT22;5396;50.950;6.988;2022-12-20T14:05:00;10.10;99.90
10692;DHT22;5396;50.950;6.988;2022-12-20T14:07:28;10.10;99.90
10692;DHT22;5396;50.950;6.988;2022-12-20T14:09:57;10.20;99.90
10692;DHT22;5396;50.950;6.988;2022-12-20T14:12:23;10.20;99.90
10692;DHT22;5396;50.950;6.988;2022-12-20T14:14:50;10.20;99.90
10692;DHT22;5396;50.950;6.988;2022-12-20T14:22:34;10.30;99.90
10692;DHT22;5396;50.950;6.988;2022-12-20T14:25:02;10.40;99.90
10692;DHT22;5396;50.950;6.988;2022-12-20T14:27:33;10.40;99.90
10692;DHT22;5396;50.950;6.988;2022-12-20T14:30:00;10.30;99.90
10692;DHT22;5396;50.950;6.988;2022-12-20T14:32:26;10.30;99.90
10692;DHT22;5396;50.950;6.988;2022-12-20T14:34:52;10.20;99.90
10692;DHT22;5396;50.950;6.988;2022-12-20T14:37:32;10.10;99.90
10692;DHT22;5396;50.950;6.988;2022-12-20T14:42:39;10.00;99.90
10692;DHT22;5396;50.950;6.988;2022-12-20T14:45:17;10.00;99.90
10692;DHT22;5396;50.950;6.988;2022-12-20T14:50:37;9.90;99.90
10692;DHT22;5396;50.950;6.988;2022-12-20T14:53:16;10.00;99.90
10692;DHT22;5396;50.950;6.988;2022-12-20T14:55:44;10.00;99.90
10692;DHT22;5396;50.950;6.988;2022-12-20T14:58:24;10.00;99.90
10692;DHT22;5396;50.950;6.988;2022-12-20T15:01:19;10.00;99.90
10692;DHT22;5396;50.950;6.988;2022-12-20T15:03:54;10.10;99.90
10692;DHT22;5396;50.950;6.988;2022-12-20T15:06:39;10.00;99.90
10692;DHT22;5396;50.950;6.988;2022-12-20T15:09:06;10.10;99.90
10692;DHT22;5396;50.950;6.988;2022-12-20T15:11:34;10.10;99.90
10692;DHT22;5396;50.950;6.988;2022-12-20T15:14:01;10.10;99.90
10692;DHT22;5396;50.950;6.988;2022-12-20T15:16:29;10.20;99.90
10692;DHT22;5396;50.950;6.988;2022-12-20T15:19:00;10.20;99.90
10692;DHT22;5396;50.950;6.988;2022-12-20T15:21:30;10.20;99.90
10692;DHT22;5396;50.950;6.988;2022-12-20T15:23:59;10.30;99.90
10692;DHT22;5396;50.950;6.988;2022-12-20T15:26:26;10.30;99.90
10692;DHT22;5396;50.950;6.988;2022-12-20T15:28:52;10.20;99.90
10692;DHT22;5396;50.950;6.988;2022-12-20T15:31:20;10.20;99.90
10692;DHT22;5396;50.950;6.988;2022-12-20T15:33:46;10.20;99.90
10692;DHT22;5396;50.950;6.988;2022-12-20T15:36:17;10.20;99.90
10692;DHT22;5396;50.950;6.988;2022-12-20T15:38:43;10.10;99.90
10692;DHT22;5396;50.950;6.988;2022-12-20T15:41:23;10.10;99.90
10692;DHT22;5396;50.950;6.988;2022-12-20T15:43:58;10.10;99.90
10692;DHT22;5396;50.950;6.988;2022-12-20T15:46:25;10.10;99.90
10692;DHT22;5396;50.950;6.988;2022-12-20T15:48:52;10.10;99.90
10692;DHT22;5396;50.950;6.988;2022-12-20T15:51:27;10.20;99.90
10692;DHT22;5396;50.950;6.988;2022-12-20T15:53:55;10.20;99.90
10692;DHT22;5396;50.950;6.988;2022-12-20T15:56:22;10.20;99.90
10692;DHT22;5396;50.950;6.988;2022-12-20T15:58:48;10.20;99.90
10692;DHT22;5396;50.950;6.988;2022-12-20T16:01:20;10.10;99.90
10692;DHT22;5396;50.950;6.988;2022-12-20T16:03:46;10.10;99.90
10692;DHT22;5396;50.950;6.988;2022-12-20T16:06:12;10.10;99.90
10692;DHT22;5396;50.950;6.988;2022-12-20T16:08:39;10.10;99.90
10692;DHT22;5396;50.950;6.988;2022-12-20T16:11:06;10.10;99.90
10692;DHT22;5396;50.950;6.988;2022-12-20T16:13:32;10.00;99.90
10692;DHT22;5396;50.950;6.988;2022-12-20T16:15:59;10.10;99.90
10692;DHT22;5396;50.950;6.988;2022-12-20T16:18:25;10.10;99.90
10692;DHT22;5396;50.950;6.988;2022-12-20T16:20:51;10.00;99.90
10692;DHT22;5396;50.950;6.988;2022-12-20T16:23:19;10.00;99.90
10692;DHT22;5396;50.950;6.988;2022-12-20T16:25:47;9.90;99.90
10692;DHT22;5396;50.950;6.988;2022-12-20T16:28:13;10.00;99.90
10692;DHT22;5396;50.950;6.988;2022-12-20T16:30:39;10.00;99.90
10692;DHT22;5396;50.950;6.988;2022-12-20T16:33:04;9.90;99.90
10692;DHT22;5396;50.950;6.988;2022-12-20T16:35:33;9.90;99.90
10692;DHT22;5396;50.950;6.988;2022-12-20T16:38:01;9.90;99.90
10692;DHT22;5396;50.950;6.988;2022-12-20T16:40:29;9.80;99.90
10692;DHT22;5396;50.950;6.988;2022-12-20T16:42:57;9.80;99.90
10692;DHT22;5396;50.950;6.988;2022-12-20T16:45:26;9.80;99.90
10692;DHT22;5396;50.950;6.988;2022-12-20T16:47:52;9.80;99.90
10692;DHT22;5396;50.950;6.988;2022-12-20T16:50:18;9.70;99.90
10692;DHT22;5396;50.950;6.988;2022-12-20T16:52:45;9.70;99.90
10692;DHT22;5396;50.950;6.988;2022-12-20T16:55:23;9.70;99.90
10692;DHT22;5396;50.950;6.988;2022-12-20T16:57:49;9.70;99.90
10692;DHT22;5396;50.950;6.988;2022-12-20T17:00:21;9.80;99.90
10692;DHT22;5396;50.950;6.988;2022-12-20T17:02:47;9.80;99.90
10692;DHT22;5396;50.950;6.988;2022-12-20T17:05:30;9.80;99.90
10692;DHT22;5396;50.950;6.988;2022-12-20T17:07:56;9.90;99.90
10692;DHT22;5396;50.950;6.988;2022-12-20T17:10:23;10.00;99.90
10692;DHT22;5396;50.950;6.988;2022-12-20T17:12:50;10.10;99.90
10692;DHT22;5396;50.950;6.988;2022-12-20T17:15:18;10.10;99.90
10692;DHT22;5396;50.950;6.988;2022-12-20T17:17:45;10.20;99.90
10692;DHT22;5396;50.950;6.988;2022-12-20T17:20:12;10.10;99.90
10692;DHT22;5396;50.950;6.988;2022-12-20T17:22:38;10.10;99.90
10692;DHT22;5396;50.950;6.988;2022-12-20T17:25:03;10.10;99.90
10692;DHT22;5396;50.950;6.988;2022-12-20T17:27:29;10.10;99.90
10692;DHT22;5396;50.950;6.988;2022-12-20T17:29:55;10.10;99.90
10692;DHT22;5396;50.950;6.988;2022-12-20T17:32:23;10.10;99.90
10692;DHT22;5396;50.950;6.988;2022-12-20T17:34:49;10.00;99.90
10692;DHT22;5396;50.950;6.988;2022-12-20T17:37:15;10.00;99.90
10692;DHT22;5396;50.950;6.988;2022-12-20T17:39:41;10.00;99.90
10692;DHT22;5396;50.950;6.988;2022-12-20T17:42:11;10.00;99.90
10692;DHT22;5396;50.950;6.988;2022-12-20T17:44:37;10.00;99.90
10692;DHT22;5396;50.950;6.988;2022-12-20T17:47:04;10.00;99.90
10692;DHT22;5396;50.950;6.988;2022-12-20T17:49:30;10.00;99.90
10692;DHT22;5396;50.950;6.988;2022-12-20T17:51:57;9.90;99.90
10692;DHT22;5396;50.950;6.988;2022-12-20T17:54:24;9.90;99.90
10692;DHT22;5396;50.950;6.988;2022-12-20T17:56:51;9.80;99.90
10692;DHT22;5396;50.950;6.988;2022-12-20T17:59:18;9.80;99.90
10692;DHT22;5396;50.950;6.988;2022-12-20T18:01:45;9.80;99.90
10692;DHT22;5396;50.950;6.988;2022-12-20T18:04:12;9.80;99.90
10692;DHT22;5396;50.950;6.988;2022-12-20T18:06:40;9.80;99.90
10692;DHT22;5396;50.950;6.988;2022-12-20T18:09:11;9.80;99.90
10692;DHT22;5396;50.950;6.988;2022-12-20T18:11:37;9.80;99.90
10692;DHT22;5396;50.950;6.988;2022-12-20T18:14:03;9.70;99.90
10692;DHT22;5396;50.950;6.988;2022-12-20T18:16:30;9.80;99.90